Panama, Iowa
Current Conditions -  °F | °C
As of 4:55 AM on Friday 24 Oct 2014 (Local Time) from KHNR Reporting Station
Haze Haze  
Wind Chill: 50°   Ceiling: 300
Heat Index: 50°   Visibility: 4mi
Dew Point: 50°   Wind: 6mph
Humidity: 100%   Direction: 180°S
Pressure: 30"   Gusts: NA
Location:  41.73°N, 95.47°W
Report Text: KHNR 240955Z AUTO 18005KT 4SM BR OVC003 10/10 A3000 RMK AO2
Loading
Personal Weather Stations






























Interactive Weather Map
Tropical Storm Tracking
New forecast layout! Learn more

10-Day Weather Forecast

Advertisements
Track Severe Weather on mobile